createdAt,value
2019-05-10T00:00:50.356Z,10.13
2019-05-10T00:03:41.867Z,12.28
2019-05-10T00:06:32.543Z,12.40
2019-05-10T00:09:04.878Z,14.63
2019-05-10T00:12:10.792Z,13.38
2019-05-10T00:14:52.761Z,17.27
2019-05-10T00:17:27.338Z,16.12
2019-05-10T00:20:02.129Z,16.40
2019-05-10T00:22:37.638Z,18.25
2019-05-10T00:25:12.183Z,18.07
2019-05-10T00:27:46.262Z,15.03
2019-05-10T00:30:20.759Z,14.07
2019-05-10T00:32:55.519Z,14.78
2019-05-10T00:35:29.875Z,14.58
2019-05-10T00:38:04.623Z,14.43
2019-05-10T00:40:40.049Z,15.95
2019-05-10T00:43:15.095Z,14.03
2019-05-10T00:45:49.334Z,16.40
2019-05-10T00:48:23.639Z,20.50
2019-05-10T00:50:58.048Z,19.02
2019-05-10T00:53:33.059Z,15.23
2019-05-10T00:56:07.503Z,16.75
2019-05-10T00:58:45.075Z,17.73
2019-05-10T01:01:20.612Z,18.40
2019-05-10T01:03:55.260Z,16.27
2019-05-10T01:06:30.054Z,18.12
2019-05-10T01:09:09.095Z,18.15
2019-05-10T01:11:44.985Z,14.75
2019-05-10T01:14:19.589Z,14.45
2019-05-10T01:16:54.195Z,18.75
2019-05-10T01:19:32.394Z,13.50
2019-05-10T01:22:06.895Z,11.48
2019-05-10T01:24:41.458Z,11.80
2019-05-10T01:27:17.527Z,12.07
2019-05-10T01:29:56.013Z,12.90
2019-05-10T01:32:30.625Z,13.85
2019-05-10T01:35:05.266Z,13.45
2019-05-10T01:37:39.807Z,14.18
2019-05-10T01:40:14.449Z,13.55
2019-05-10T01:42:49.567Z,12.20
2019-05-10T01:45:24.746Z,12.00
2019-05-10T01:48:00.556Z,12.43
2019-05-10T01:50:34.765Z,12.28
2019-05-10T01:53:09.337Z,11.35
2019-05-10T01:55:52.164Z,14.70
2019-05-10T01:58:20.284Z,13.13
2019-05-10T02:00:55.266Z,14.85
2019-05-10T02:03:29.788Z,13.15
2019-05-10T02:06:04.410Z,14.10
2019-05-10T02:08:39.181Z,12.07
2019-05-10T02:11:14.184Z,10.55
2019-05-10T02:13:48.871Z,12.05
2019-05-10T02:16:25.181Z,10.45
2019-05-10T02:18:59.809Z,10.32
2019-05-10T02:21:34.271Z,13.75
2019-05-10T02:24:08.912Z,10.40
2019-05-10T02:26:42.997Z,11.88
2019-05-10T02:29:17.396Z,10.75
2019-05-10T02:31:53.243Z,9.60
2019-05-10T02:34:28.012Z,13.65
2019-05-10T02:37:02.685Z,10.98
2019-05-10T02:39:37.396Z,12.10
2019-05-10T02:42:11.686Z,11.65
2019-05-10T02:44:48.137Z,12.35
2019-05-10T02:47:22.297Z,11.00
2019-05-10T02:49:59.171Z,12.40
2019-05-10T02:52:32.189Z,10.10
2019-05-10T02:55:06.871Z,13.10
2019-05-10T02:57:41.425Z,12.78
2019-05-10T03:00:15.970Z,13.70
2019-05-10T03:02:50.932Z,12.23
2019-05-10T03:05:25.253Z,12.47
2019-05-10T03:08:00.811Z,10.10
2019-05-10T03:10:36.822Z,12.93
2019-05-10T03:13:11.357Z,11.25
2019-05-10T03:15:46.138Z,12.20
2019-05-10T03:18:20.750Z,11.55
2019-05-10T03:20:56.091Z,12.53
2019-05-10T03:23:30.466Z,10.30
2019-05-10T03:26:05.358Z,13.90
2019-05-10T03:28:40.742Z,14.95
2019-05-10T03:31:15.145Z,12.25
2019-05-10T03:33:55.400Z,13.38
2019-05-10T03:36:25.815Z,9.57
2019-05-10T03:39:00.397Z,10.28
2019-05-10T03:41:34.728Z,10.05
2019-05-10T03:44:16.278Z,9.00
2019-05-10T03:46:51.649Z,10.48
2019-05-10T03:49:27.416Z,12.53
2019-05-10T03:52:03.985Z,10.70
2019-05-10T03:54:51.885Z,13.45
2019-05-10T03:57:26.447Z,11.50
2019-05-10T04:00:01.173Z,10.13
2019-05-10T04:02:35.697Z,13.73
2019-05-10T04:05:11.683Z,12.65
2019-05-10T04:07:46.231Z,10.53
2019-05-10T04:10:21.172Z,13.62
2019-05-10T04:12:56.942Z,13.15
2019-05-10T04:15:31.842Z,11.70
2019-05-10T04:18:06.464Z,11.20
2019-05-10T04:20:42.687Z,11.18
2019-05-10T04:23:17.850Z,10.27
2019-05-10T04:25:55.962Z,8.98
2019-05-10T04:28:31.566Z,11.35
2019-05-10T04:31:05.929Z,11.63
2019-05-10T04:33:40.557Z,10.88
2019-05-10T04:36:15.172Z,15.55
2019-05-10T04:38:50.567Z,15.13
2019-05-10T04:41:24.733Z,10.85
2019-05-10T04:43:59.019Z,16.10
2019-05-10T04:46:34.683Z,12.35
2019-05-10T04:49:11.664Z,10.70
2019-05-10T04:51:46.243Z,13.98
2019-05-10T04:54:20.731Z,11.70
2019-05-10T04:56:59.574Z,12.40
2019-05-10T04:59:30.843Z,14.20
2019-05-10T05:02:05.113Z,9.75
2019-05-10T05:04:43.036Z,12.93
2019-05-10T05:07:18.123Z,11.73
2019-05-10T05:09:52.483Z,9.38
2019-05-10T05:12:26.887Z,11.85
2019-05-10T05:15:01.212Z,9.75
2019-05-10T05:17:36.696Z,9.85
2019-05-10T05:20:11.125Z,12.63
2019-05-10T05:22:45.758Z,11.48
2019-05-10T05:25:22.114Z,9.78
2019-05-10T05:28:07.166Z,15.48
2019-05-10T05:30:32.045Z,10.08
2019-05-10T05:33:06.553Z,12.47
2019-05-10T05:35:41.009Z,11.65
2019-05-10T05:38:15.462Z,11.05
2019-05-10T05:40:49.715Z,10.23
2019-05-10T05:43:24.001Z,10.85
2019-05-10T05:45:58.497Z,13.50
2019-05-10T05:48:40.452Z,8.93
2019-05-10T05:51:11.507Z,10.35
2019-05-10T05:53:45.623Z,8.43
2019-05-10T05:56:20.594Z,10.23
2019-05-10T05:58:56.246Z,10.98
2019-05-10T06:01:30.518Z,12.35
2019-05-10T06:04:06.358Z,8.48
2019-05-10T06:06:41.425Z,8.73
2019-05-10T06:09:15.680Z,11.88
2019-05-10T06:11:50.198Z,11.12
2019-05-10T06:14:24.599Z,9.85
2019-05-10T06:16:59.056Z,11.70
2019-05-10T06:19:33.417Z,13.22
2019-05-10T06:22:08.179Z,11.48
2019-05-10T06:24:46.680Z,12.33
2019-05-10T06:27:18.287Z,10.40
2019-05-10T06:29:53.044Z,11.65
2019-05-10T06:32:31.029Z,9.73
2019-05-10T06:35:05.643Z,11.85
2019-05-10T06:37:39.875Z,10.72
2019-05-10T06:40:14.694Z,9.70
2019-05-10T06:42:48.971Z,10.43
2019-05-10T06:45:23.647Z,10.85
2019-05-10T06:47:58.550Z,12.70
2019-05-10T06:50:33.366Z,12.58
2019-05-10T06:53:10.962Z,8.73
2019-05-10T06:55:44.728Z,8.08
2019-05-10T06:58:19.534Z,10.18
2019-05-10T07:00:54.799Z,9.35
2019-05-10T07:03:29.298Z,10.55
2019-05-10T07:06:03.869Z,10.15
2019-05-10T07:08:44.326Z,11.38
2019-05-10T07:11:14.230Z,7.78
2019-05-10T07:13:52.850Z,7.15
2019-05-10T07:16:26.142Z,10.45
2019-05-10T07:19:02.181Z,9.10
2019-05-10T07:21:39.126Z,9.58
2019-05-10T07:24:12.683Z,7.62
2019-05-10T07:26:46.656Z,8.63
2019-05-10T07:29:29.775Z,9.23
2019-05-10T07:31:56.820Z,9.43
2019-05-10T07:34:31.360Z,10.50
2019-05-10T07:37:05.624Z,10.90
2019-05-10T07:39:40.222Z,10.45
2019-05-10T07:42:15.838Z,8.80
2019-05-10T07:44:50.160Z,10.43
2019-05-10T07:47:30.422Z,9.08
2019-05-10T07:50:03.828Z,11.38
2019-05-10T07:52:42.518Z,9.30
2019-05-10T07:55:12.754Z,10.30
2019-05-10T07:57:49.158Z,8.35
2019-05-10T08:00:25.498Z,8.83
2019-05-10T08:03:12.524Z,9.68
2019-05-10T08:05:35.815Z,9.20
2019-05-10T08:08:10.266Z,9.38
2019-05-10T08:10:44.931Z,7.62
2019-05-10T08:13:21.230Z,7.83
2019-05-10T08:15:55.882Z,9.10
2019-05-10T08:18:30.440Z,9.53
2019-05-10T08:21:20.952Z,9.80
2019-05-10T08:23:43.626Z,9.70
2019-05-10T08:28:52.407Z,10.30
2019-05-10T08:31:26.539Z,10.43
2019-05-10T08:34:02.405Z,10.53
2019-05-10T08:36:42.233Z,9.10
2019-05-10T08:39:14.132Z,7.12
2019-05-10T08:42:03.717Z,8.43
2019-05-10T08:44:25.352Z,10.08
2019-05-10T08:47:02.139Z,10.93
2019-05-10T08:49:44.241Z,8.63
2019-05-10T08:52:12.161Z,8.58
2019-05-10T08:54:47.019Z,8.65
2019-05-10T08:57:22.299Z,12.50
2019-05-10T09:00:06.553Z,9.58
2019-05-10T09:02:32.917Z,12.97
2019-05-10T09:05:07.351Z,11.65
2019-05-10T09:07:43.034Z,13.55
2019-05-10T09:10:17.855Z,9.10
2019-05-10T09:12:57.767Z,13.62
2019-05-10T09:15:29.741Z,11.53
2019-05-10T09:18:07.527Z,11.95
2019-05-10T09:20:42.078Z,11.60
2019-05-10T09:23:20.073Z,10.15
2019-05-10T09:25:55.121Z,9.48
2019-05-10T09:28:32.105Z,11.20
2019-05-10T09:31:17.401Z,10.13
2019-05-10T09:33:49.689Z,12.98
2019-05-10T09:36:23.138Z,10.80
2019-05-10T09:38:57.655Z,12.25
2019-05-10T09:41:33.771Z,13.30
2019-05-10T09:44:08.080Z,12.70
2019-05-10T09:46:42.340Z,10.18
2019-05-10T09:49:18.915Z,12.55
2019-05-10T09:51:55.061Z,12.30
2019-05-10T09:54:33.367Z,16.40
2019-05-10T09:57:04.895Z,15.90
2019-05-10T09:59:39.495Z,9.48
2019-05-10T10:02:15.949Z,9.83
2019-05-10T10:04:49.803Z,11.10
2019-05-10T10:07:28.262Z,10.72
2019-05-10T10:10:00.183Z,14.28
2019-05-10T10:12:39.521Z,13.00
2019-05-10T10:15:25.276Z,13.22
2019-05-10T10:17:50.273Z,11.83
2019-05-10T10:20:24.923Z,10.98
2019-05-10T10:22:59.651Z,11.70
2019-05-10T10:25:35.238Z,13.22
2019-05-10T10:28:16.977Z,11.65
2019-05-10T10:30:52.670Z,14.00
2019-05-10T10:33:25.448Z,11.38
2019-05-10T10:36:04.979Z,11.50
2019-05-10T10:38:39.196Z,11.33
2019-05-10T10:41:10.566Z,8.93
2019-05-10T10:43:44.931Z,10.45
2019-05-10T10:46:20.014Z,13.28
2019-05-10T10:48:54.771Z,14.20
2019-05-10T10:51:32.238Z,11.33
2019-05-10T10:54:07.378Z,9.43
2019-05-10T10:56:41.609Z,9.65
2019-05-10T10:59:18.168Z,10.08
2019-05-10T11:02:23.356Z,12.82
2019-05-10T11:04:28.460Z,14.10
2019-05-10T11:07:10.484Z,9.88
2019-05-10T11:09:40.998Z,10.98
2019-05-10T11:12:21.089Z,13.75
2019-05-10T11:14:51.475Z,11.65
2019-05-10T11:17:26.203Z,11.18
2019-05-10T11:20:00.778Z,9.63
2019-05-10T11:22:35.705Z,10.23
2019-05-10T11:25:12.774Z,11.85
2019-05-10T11:27:47.605Z,10.63
2019-05-10T11:30:22.587Z,11.60
2019-05-10T11:32:57.474Z,9.70
2019-05-10T11:35:34.446Z,12.88
2019-05-10T11:38:12.744Z,9.73
2019-05-10T11:40:44.178Z,14.43
2019-05-10T11:43:23.931Z,10.40
2019-05-10T11:45:55.455Z,10.93
2019-05-10T11:48:36.838Z,12.60
2019-05-10T11:53:48.972Z,11.83
2019-05-10T11:59:02.577Z,11.12
2019-05-10T11:59:03.904Z,9.85
2019-05-10T11:59:03.906Z,12.68
2019-05-10T12:01:41.789Z,13.40
2019-05-10T12:04:28.766Z,12.30
2019-05-10T12:06:55.422Z,15.70
2019-05-10T12:09:31.621Z,12.68
2019-05-10T12:12:06.451Z,10.98
2019-05-10T12:14:43.759Z,10.18
2019-05-10T12:17:23.667Z,14.15
2019-05-10T12:19:56.288Z,12.93
2019-05-10T12:22:40.813Z,9.45
2019-05-10T12:25:23.310Z,15.23
2019-05-10T12:27:47.866Z,13.40
2019-05-10T12:30:17.166Z,11.03
2019-05-10T12:32:56.769Z,13.20
2019-05-10T12:35:35.585Z,9.48
2019-05-10T12:38:04.074Z,13.80
2019-05-10T12:40:41.196Z,10.28
2019-05-10T12:43:14.187Z,11.12
2019-05-10T12:45:48.826Z,12.23
2019-05-10T12:48:23.706Z,11.08
2019-05-10T12:51:04.253Z,12.37
2019-05-10T12:53:36.584Z,14.10
2019-05-10T12:56:09.834Z,9.00
2019-05-10T12:58:44.166Z,10.85
2019-05-10T13:01:18.569Z,9.10
2019-05-10T13:03:53.227Z,13.88
2019-05-10T13:06:27.687Z,12.43
2019-05-10T13:09:03.088Z,10.15
2019-05-10T13:11:37.787Z,9.88
2019-05-10T13:14:12.588Z,11.57
2019-05-10T13:16:46.759Z,10.63
2019-05-10T13:19:23.573Z,9.65
2019-05-10T13:21:58.721Z,11.22
2019-05-10T13:24:33.844Z,10.53
2019-05-10T13:27:08.273Z,10.70
2019-05-10T13:29:47.016Z,9.00
2019-05-10T13:32:20.577Z,10.85
2019-05-10T13:34:56.983Z,11.93
2019-05-10T13:37:31.343Z,10.15
2019-05-10T13:40:07.933Z,12.37
2019-05-10T13:42:46.090Z,12.10
2019-05-10T13:45:17.407Z,9.70
2019-05-10T13:47:51.850Z,12.40
2019-05-10T13:50:25.984Z,11.16
2019-05-10T13:53:04.692Z,12.28
2019-05-10T13:55:39.029Z,10.25
2019-05-10T13:58:13.416Z,10.30
2019-05-10T14:00:49.243Z,9.48
2019-05-10T14:03:23.907Z,10.95
2019-05-10T14:05:58.834Z,10.63
2019-05-10T14:08:33.392Z,11.83
2019-05-10T14:11:10.083Z,8.55
2019-05-10T14:13:43.827Z,9.43
2019-05-10T14:16:19.602Z,9.43
2019-05-10T14:18:54.187Z,9.23
2019-05-10T14:21:29.854Z,12.10
2019-05-10T14:24:09.021Z,9.45
2019-05-10T14:26:45.407Z,10.68
2019-05-10T14:29:19.787Z,9.00
2019-05-10T14:31:54.395Z,11.93
2019-05-10T14:34:29.023Z,9.33
2019-05-10T14:37:03.404Z,11.93
2019-05-10T14:39:38.010Z,9.50
2019-05-10T14:42:12.181Z,10.13
2019-05-10T14:44:46.734Z,7.40
2019-05-10T14:47:21.346Z,6.95
2019-05-10T14:49:55.812Z,5.95
2019-05-10T14:52:31.345Z,6.40
2019-05-10T14:55:08.223Z,6.97
2019-05-10T14:57:44.912Z,5.83
2019-05-10T15:00:20.723Z,8.28
2019-05-10T15:02:56.778Z,7.60
2019-05-10T15:05:31.233Z,5.87
2019-05-10T15:08:06.028Z,6.08
2019-05-10T15:10:41.812Z,6.33
2019-05-10T15:13:19.721Z,6.47
2019-05-10T15:15:52.540Z,5.65
2019-05-10T15:18:27.140Z,5.25
2019-05-10T15:21:04.653Z,5.12
2019-05-10T15:23:41.540Z,4.30
2019-05-10T15:26:16.239Z,7.12
2019-05-10T15:28:51.176Z,6.40
2019-05-10T15:31:29.161Z,5.50
2019-05-10T15:34:05.290Z,4.70
2019-05-10T15:36:40.232Z,5.37
2019-05-10T15:39:14.746Z,7.33
2019-05-10T15:41:53.474Z,4.70
2019-05-10T15:44:31.212Z,4.60
2019-05-10T15:47:01.077Z,4.70
2019-05-10T15:49:35.564Z,4.67
2019-05-10T15:52:17.304Z,4.67
2019-05-10T15:54:54.646Z,5.97
2019-05-10T15:57:32.510Z,6.00
2019-05-10T16:00:06.549Z,6.37
2019-05-10T16:02:41.157Z,4.28
2019-05-10T16:05:25.634Z,5.95
2019-05-10T16:07:53.224Z,5.37
2019-05-10T16:10:38.626Z,5.90
2019-05-10T16:13:02.656Z,4.42
2019-05-10T16:15:37.083Z,5.47
2019-05-10T16:18:11.476Z,4.67
2019-05-10T16:20:47.292Z,5.63
2019-05-10T16:23:23.714Z,6.05
2019-05-10T16:26:02.133Z,5.12
2019-05-10T16:28:36.687Z,4.33
2019-05-10T16:31:11.087Z,4.75
2019-05-10T16:33:48.400Z,6.40
2019-05-10T16:36:27.777Z,5.25
2019-05-10T16:39:01.356Z,6.10
2019-05-10T16:41:34.340Z,5.25
2019-05-10T16:44:12.689Z,5.20
2019-05-10T16:46:49.581Z,4.87
2019-05-10T16:49:23.936Z,5.42
2019-05-10T16:51:58.423Z,5.03
2019-05-10T16:54:33.267Z,4.95
2019-05-10T16:57:08.864Z,5.05
2019-05-10T16:59:43.411Z,5.75
2019-05-10T17:02:17.713Z,5.65
2019-05-10T17:04:52.995Z,5.30
2019-05-10T17:07:27.340Z,5.35
2019-05-10T17:10:01.830Z,5.55
2019-05-10T17:12:37.480Z,6.97
2019-05-10T17:15:12.097Z,5.92
2019-05-10T17:17:46.429Z,6.47
2019-05-10T17:20:20.960Z,5.97
2019-05-10T17:23:07.957Z,6.33
2019-05-10T17:25:35.472Z,5.30
2019-05-10T17:28:08.648Z,6.45
2019-05-10T17:30:44.902Z,6.40
2019-05-10T17:33:18.662Z,5.75
2019-05-10T17:36:07.200Z,8.40
2019-05-10T17:38:33.914Z,6.45
2019-05-10T17:41:08.358Z,7.65
2019-05-10T17:43:42.951Z,6.75
2019-05-10T17:46:18.998Z,6.37
2019-05-10T17:48:53.229Z,5.40
2019-05-10T17:51:28.089Z,6.35
2019-05-10T17:54:03.769Z,5.83
2019-05-10T17:56:40.596Z,5.72
2019-05-10T17:59:15.118Z,5.72
2019-05-10T18:01:49.695Z,5.75
2019-05-10T18:04:23.888Z,6.00
2019-05-10T18:07:00.974Z,6.53
2019-05-10T18:09:35.402Z,6.20
2019-05-10T18:12:09.916Z,6.22
2019-05-10T18:14:50.161Z,7.50
2019-05-10T18:17:25.870Z,5.92
2019-05-10T18:20:02.250Z,6.58
2019-05-10T18:22:42.295Z,5.83
2019-05-10T18:25:19.597Z,6.70
2019-05-10T18:27:48.628Z,8.90
2019-05-10T18:30:23.980Z,6.28
2019-05-10T18:32:58.291Z,9.68
2019-05-10T18:35:34.028Z,7.13
2019-05-10T18:38:08.719Z,7.70
2019-05-10T18:40:43.089Z,6.75
2019-05-10T18:43:17.344Z,6.60
2019-05-10T18:45:51.970Z,7.97
2019-05-10T18:48:28.414Z,9.68
2019-05-10T18:51:02.279Z,7.08
2019-05-10T18:53:37.472Z,8.38
2019-05-10T18:56:14.540Z,6.77
2019-05-10T18:58:51.920Z,8.08
2019-05-10T19:01:25.831Z,7.87
2019-05-10T19:04:00.599Z,7.20
2019-05-10T19:06:36.077Z,7.13
2019-05-10T19:09:12.787Z,6.92
2019-05-10T19:11:47.350Z,6.97
2019-05-10T19:14:23.981Z,8.88
2019-05-10T19:17:03.888Z,7.30
2019-05-10T19:19:41.516Z,8.97
2019-05-10T19:22:12.421Z,7.67
2019-05-10T19:24:46.780Z,9.45
2019-05-10T19:27:25.232Z,11.63
2019-05-10T19:29:59.772Z,9.83
2019-05-10T19:32:34.515Z,9.88
2019-05-10T19:35:08.841Z,11.85
2019-05-10T19:37:44.269Z,10.70
2019-05-10T19:40:18.676Z,10.20
2019-05-10T19:42:54.170Z,10.72
2019-05-10T19:45:31.065Z,11.78
2019-05-10T19:48:05.944Z,10.70
2019-05-10T19:50:41.897Z,9.48
2019-05-10T19:53:16.191Z,11.93
2019-05-10T19:55:51.421Z,9.30
2019-05-10T19:58:32.246Z,9.93
2019-05-10T20:01:02.931Z,10.93
2019-05-10T20:03:37.280Z,9.80
2019-05-10T20:06:12.548Z,8.50
2019-05-10T20:08:47.326Z,8.63
2019-05-10T20:11:21.952Z,9.83
2019-05-10T20:13:56.312Z,9.53
2019-05-10T20:16:31.320Z,9.13
2019-05-10T20:19:08.797Z,9.00
2019-05-10T20:21:41.581Z,10.50
2019-05-10T20:24:16.225Z,10.38
2019-05-10T20:26:50.876Z,9.28
2019-05-10T20:29:27.213Z,10.35
2019-05-10T20:32:01.639Z,11.73
2019-05-10T20:34:42.073Z,14.00
2019-05-10T20:37:18.502Z,13.35
2019-05-10T20:39:52.835Z,14.60
2019-05-10T20:42:27.373Z,14.18
2019-05-10T20:45:07.437Z,13.80
2019-05-10T20:47:37.399Z,12.28
2019-05-10T20:50:12.073Z,14.30
2019-05-10T20:52:46.968Z,12.40
2019-05-10T20:55:21.702Z,12.30
2019-05-10T20:57:56.257Z,10.63
2019-05-10T21:00:30.534Z,13.75
2019-05-10T21:03:05.187Z,12.18
2019-05-10T21:05:39.464Z,14.87
2019-05-10T21:08:16.796Z,11.53
2019-05-10T21:10:50.616Z,12.90
2019-05-10T21:13:25.008Z,13.38
2019-05-10T21:16:01.632Z,11.40
2019-05-10T21:18:36.211Z,13.78
2019-05-10T21:21:10.742Z,12.80
2019-05-10T21:23:46.145Z,12.80
2019-05-10T21:26:20.474Z,15.48
2019-05-10T21:28:55.041Z,12.78
2019-05-10T21:31:29.289Z,14.53
2019-05-10T21:34:09.629Z,14.17
2019-05-10T21:36:39.745Z,16.55
2019-05-10T21:39:14.845Z,14.07
2019-05-10T21:41:48.810Z,16.97
2019-05-10T21:44:23.090Z,14.00
2019-05-10T21:46:57.811Z,12.58
2019-05-10T21:49:31.996Z,13.68
2019-05-10T21:52:06.494Z,14.77
2019-05-10T21:54:41.108Z,16.23
2019-05-10T21:57:15.256Z,14.25
2019-05-10T21:59:51.646Z,16.25
2019-05-10T22:02:26.323Z,13.98
2019-05-10T22:05:00.544Z,15.45
2019-05-10T22:07:34.956Z,14.23
2019-05-10T22:10:10.929Z,14.05
2019-05-10T22:12:45.201Z,17.48
2019-05-10T22:15:19.224Z,13.78
2019-05-10T22:17:53.640Z,14.60
2019-05-10T22:20:28.217Z,14.55
2019-05-10T22:23:02.585Z,13.90
2019-05-10T22:25:37.232Z,14.90
2019-05-10T22:28:11.383Z,15.53
2019-05-10T22:30:47.255Z,14.85
2019-05-10T22:33:21.847Z,16.12
2019-05-10T22:35:56.268Z,13.95
2019-05-10T22:38:32.079Z,14.38
2019-05-10T22:41:08.698Z,18.05
2019-05-10T22:43:43.171Z,15.20
2019-05-10T22:46:17.549Z,16.30
2019-05-10T22:48:52.187Z,14.65
2019-05-10T22:51:26.296Z,15.55
2019-05-10T22:54:00.796Z,16.23
2019-05-10T22:56:35.294Z,16.67
2019-05-10T22:59:09.999Z,14.87
2019-05-10T23:01:44.435Z,13.85
2019-05-10T23:04:19.042Z,14.55
2019-05-10T23:06:53.572Z,14.15
2019-05-10T23:09:27.870Z,17.17
2019-05-10T23:12:02.516Z,15.43
2019-05-10T23:14:37.416Z,15.00
2019-05-10T23:17:11.460Z,16.25
2019-05-10T23:19:47.093Z,15.65
2019-05-10T23:22:22.941Z,17.25
2019-05-10T23:24:58.186Z,14.40
2019-05-10T23:27:38.873Z,15.18
2019-05-10T23:30:13.535Z,13.93
2019-05-10T23:32:47.732Z,15.38
2019-05-10T23:35:22.265Z,17.55
2019-05-10T23:37:57.830Z,18.77
2019-05-10T23:40:33.245Z,22.52
2019-05-10T23:43:07.814Z,23.02
2019-05-10T23:45:42.674Z,25.23
2019-05-10T23:48:17.383Z,23.27
2019-05-10T23:50:51.798Z,24.82
2019-05-10T23:53:26.182Z,22.85
2019-05-10T23:56:01.017Z,22.13
2019-05-10T23:58:35.959Z,22.07
